Current Conditions
Clear
Conditions



Pressure
30.1 (inHG) - 1019.32 (mb)
Visibility

8.0 (mimiles) - 12.9 (km)
   Temperature
43  °F
6°C
39  °F
Dewpoint
87  %
 Humidity
   Wind Speed
0  mph
0  kts
0  km/h
0  m/s
   Wind Direction
Calm
Due North
   Airport Data
KDWH
Location David Wayne Hooks Memorial 4.4 mi (7.08 km)
Metar :KDWH 240653Z AUTO 00000KT 8SM CLR 06/04 A3010 RMK AO2 SLP192 T00610044
Fri 24th January 01:53 am
   Raw Metar Info
Raw METAR is the most common format in the world for the transmission of observational weather data. It is highly standardized through the International Civil Aviation Organization (ICAO), which allows it to be understood throughout most of the world.
   API Info
Data Provided by
https://www.checkwx.com/weather/KDWH
   © Info
CSS/SVG/PHP scripts were developed by weather34.com for use in the weather34 template © 2015-2020

Guide Info provided by Metar-Wikipedia